createdAt,value
2019-02-11T00:00:34.488Z,0.50
2019-02-11T00:05:19.097Z,0.50
2019-02-11T00:10:03.708Z,0.40
2019-02-11T00:14:48.601Z,0.73
2019-02-11T00:19:33.216Z,0.50
2019-02-11T00:24:17.798Z,1.27
2019-02-11T00:29:02.519Z,0.60
2019-02-11T00:33:47.451Z,0.50
2019-02-11T00:38:32.153Z,0.67
2019-02-11T00:43:19.281Z,0.40
2019-02-11T00:48:03.042Z,0.87
2019-02-11T00:52:47.629Z,0.50
2019-02-11T00:57:32.141Z,0.30
2019-02-11T01:02:16.835Z,0.30
2019-02-11T01:07:01.406Z,0.47
2019-02-11T01:11:45.907Z,0.60
2019-02-11T01:16:30.475Z,0.50
2019-02-11T01:21:15.083Z,0.70
2019-02-11T01:25:59.615Z,0.50
2019-02-11T01:30:44.193Z,0.60
2019-02-11T01:35:28.833Z,0.70
2019-02-11T01:40:13.407Z,0.97
2019-02-11T01:44:58.057Z,0.43
2019-02-11T01:49:42.851Z,0.50
2019-02-11T01:54:27.381Z,0.60
2019-02-11T01:59:12.252Z,0.60
2019-02-11T02:03:56.952Z,0.70
2019-02-11T02:08:41.779Z,0.60
2019-02-11T02:13:27.347Z,1.17
2019-02-11T02:18:11.956Z,0.70
2019-02-11T02:22:56.631Z,0.70
2019-02-11T02:27:41.187Z,0.80
2019-02-11T02:32:25.743Z,0.50
2019-02-11T02:37:14.687Z,0.63
2019-02-11T02:42:00.816Z,0.53
2019-02-11T02:46:45.680Z,0.87
2019-02-11T02:51:30.337Z,0.50
2019-02-11T02:56:15.044Z,0.60
2019-02-11T03:00:59.767Z,0.40
2019-02-11T03:05:44.351Z,1.40
2019-02-11T03:10:28.997Z,0.70
2019-02-11T03:15:13.795Z,0.60
2019-02-11T03:19:58.497Z,0.63
2019-02-11T03:24:43.185Z,1.53
2019-02-11T03:29:27.862Z,0.87
2019-02-11T03:34:12.399Z,0.53
2019-02-11T03:38:56.967Z,0.70
2019-02-11T03:43:41.535Z,0.90
2019-02-11T03:48:26.415Z,0.80
2019-02-11T03:53:11.007Z,0.77
2019-02-11T03:57:55.981Z,1.40
2019-02-11T04:02:40.578Z,1.33
2019-02-11T04:07:25.105Z,0.90
2019-02-11T04:12:09.749Z,1.50
2019-02-11T04:16:54.423Z,1.50
2019-02-11T04:21:40.150Z,1.90
2019-02-11T04:26:24.851Z,2.37
2019-02-11T04:31:09.620Z,3.33
2019-02-11T04:35:56.391Z,7.23
2019-02-11T04:40:40.643Z,4.90
2019-02-11T04:45:25.312Z,5.90
2019-02-11T04:50:10.508Z,4.83
2019-02-11T04:54:55.233Z,5.03
2019-02-11T04:59:39.842Z,5.03
2019-02-11T05:04:24.545Z,4.13
2019-02-11T05:09:09.246Z,2.93
2019-02-11T05:13:53.943Z,5.03
2019-02-11T05:18:38.489Z,3.37
2019-02-11T05:23:23.051Z,3.03
2019-02-11T05:28:07.572Z,3.20
2019-02-11T05:32:52.168Z,3.67
2019-02-11T05:37:36.865Z,2.97
2019-02-11T05:42:21.651Z,7.10
2019-02-11T05:47:06.183Z,6.23
2019-02-11T05:51:50.884Z,7.30
2019-02-11T05:56:35.443Z,7.07
2019-02-11T06:01:20.231Z,7.93
2019-02-11T06:06:04.804Z,4.90
2019-02-11T06:10:49.354Z,3.10
2019-02-11T06:15:33.851Z,6.50
2019-02-11T06:20:18.353Z,5.67
2019-02-11T06:25:02.979Z,7.23
2019-02-11T06:29:47.587Z,4.43
2019-02-11T06:34:33.885Z,6.17
2019-02-11T06:39:18.700Z,7.27
2019-02-11T06:44:03.254Z,5.60
2019-02-11T06:48:47.806Z,4.33
2019-02-11T06:53:32.435Z,4.27
2019-02-11T06:58:17.029Z,7.90
2019-02-11T07:03:01.571Z,4.10
2019-02-11T07:07:46.114Z,5.33
2019-02-11T07:12:30.634Z,5.93
2019-02-11T07:17:15.364Z,9.00
2019-02-11T07:21:59.918Z,6.83
2019-02-11T07:26:44.546Z,8.27
2019-02-11T07:31:29.058Z,7.27
2019-02-11T07:36:13.712Z,7.93
2019-02-11T07:40:58.611Z,6.47
2019-02-11T07:45:48.190Z,9.77
2019-02-11T07:50:32.805Z,5.93
2019-02-11T07:55:17.304Z,9.03
2019-02-11T08:00:01.813Z,5.27
2019-02-11T08:04:46.311Z,8.80
2019-02-11T08:09:31.022Z,5.00
2019-02-11T08:14:15.621Z,6.17
2019-02-11T08:19:00.293Z,5.77
2019-02-11T08:23:44.932Z,4.40
2019-02-11T08:28:30.314Z,6.83
2019-02-11T08:33:14.891Z,5.47
2019-02-11T08:37:59.453Z,7.50
2019-02-11T08:42:44.108Z,2.40
2019-02-11T08:47:28.713Z,2.33
2019-02-11T08:52:13.403Z,5.87
2019-02-11T08:56:58.091Z,5.53
2019-02-11T09:01:43.004Z,8.73
2019-02-11T09:06:27.620Z,6.07
2019-02-11T09:11:12.190Z,6.37
2019-02-11T09:15:56.982Z,3.17
2019-02-11T09:20:42.177Z,6.73
2019-02-11T09:25:26.939Z,7.30
2019-02-11T09:30:13.651Z,3.87
2019-02-11T09:34:58.323Z,7.03
2019-02-11T09:39:42.879Z,4.10
2019-02-11T09:44:29.719Z,5.53
2019-02-11T09:49:13.777Z,5.10
2019-02-11T09:53:58.452Z,3.80
2019-02-11T09:58:42.997Z,4.37
2019-02-11T10:03:27.526Z,5.57
2019-02-11T10:08:12.215Z,2.67
2019-02-11T10:12:56.733Z,3.57
2019-02-11T10:17:41.244Z,4.97
2019-02-11T10:22:25.957Z,4.33
2019-02-11T10:27:10.828Z,6.10
2019-02-11T10:31:55.510Z,3.87
2019-02-11T10:36:40.218Z,4.20
2019-02-11T10:41:25.096Z,4.37
2019-02-11T10:46:09.578Z,8.97
2019-02-11T10:50:54.364Z,3.90
2019-02-11T10:55:38.961Z,5.17
2019-02-11T11:00:24.053Z,4.17
2019-02-11T11:05:09.760Z,4.20
2019-02-11T11:09:54.665Z,5.70
2019-02-11T11:14:39.274Z,4.53
2019-02-11T11:19:23.967Z,5.17
2019-02-11T11:24:08.486Z,3.43
2019-02-11T11:28:53.034Z,2.57
2019-02-11T11:33:37.574Z,2.87
2019-02-11T11:38:22.124Z,7.37
2019-02-11T11:43:06.568Z,8.67
2019-02-11T11:47:51.152Z,1.80
2019-02-11T11:52:35.708Z,4.90
2019-02-11T11:57:20.268Z,2.23
2019-02-11T12:02:04.772Z,4.43
2019-02-11T12:06:49.399Z,2.87
2019-02-11T12:11:33.953Z,1.87
2019-02-11T12:16:18.465Z,4.23
2019-02-11T12:21:03.254Z,5.00
2019-02-11T12:25:48.008Z,5.33
2019-02-11T12:30:32.557Z,6.07
2019-02-11T12:35:17.082Z,10.03
2019-02-11T12:40:01.531Z,8.07
2019-02-11T12:44:46.253Z,8.10
2019-02-11T12:49:30.142Z,10.33
2019-02-11T12:54:14.607Z,6.83
2019-02-11T12:58:59.193Z,6.47
2019-02-11T13:03:43.869Z,9.67
2019-02-11T13:08:28.863Z,6.17
2019-02-11T13:13:13.550Z,7.83
2019-02-11T13:17:58.167Z,9.10
2019-02-11T13:22:42.820Z,7.70
2019-02-11T13:27:27.362Z,7.67
2019-02-11T13:32:11.915Z,5.80
2019-02-11T13:36:56.798Z,5.03
2019-02-11T13:41:41.446Z,6.93
2019-02-11T13:46:26.062Z,5.37
2019-02-11T13:51:10.807Z,8.43
2019-02-11T13:55:55.581Z,10.60
2019-02-11T14:00:41.373Z,8.80
2019-02-11T14:05:26.447Z,5.33
2019-02-11T14:10:11.169Z,7.10
2019-02-11T14:14:55.851Z,8.87
2019-02-11T14:19:40.493Z,6.40
2019-02-11T14:24:25.061Z,6.60
2019-02-11T14:29:12.296Z,6.17
2019-02-11T14:33:56.960Z,10.77
2019-02-11T14:38:41.598Z,4.77
2019-02-11T14:43:26.402Z,10.93
2019-02-11T14:48:26.433Z,7.97
2019-02-11T14:52:58.588Z,4.00
2019-02-11T14:57:43.284Z,4.53
2019-02-11T15:02:28.126Z,9.13
2019-02-11T15:07:12.737Z,7.20
2019-02-11T15:11:57.437Z,8.03
2019-02-11T15:16:42.080Z,7.90
2019-02-11T15:21:26.651Z,9.03
2019-02-11T15:26:11.279Z,9.03
2019-02-11T15:30:55.809Z,8.03
2019-02-11T15:35:40.487Z,10.60
2019-02-11T15:40:25.104Z,12.67
2019-02-11T15:45:11.359Z,11.37
2019-02-11T15:49:55.997Z,8.17
2019-02-11T15:54:42.823Z,11.83
2019-02-11T15:59:27.284Z,10.17
2019-02-11T16:04:14.687Z,9.63
2019-02-11T16:09:04.454Z,6.03
2019-02-11T16:13:48.844Z,10.83
2019-02-11T16:18:33.485Z,8.43
2019-02-11T16:23:18.056Z,9.20
2019-02-11T16:28:02.609Z,7.70
2019-02-11T16:32:47.108Z,11.40
2019-02-11T16:37:31.789Z,4.30
2019-02-11T16:42:16.474Z,4.87
2019-02-11T16:47:00.981Z,5.23
2019-02-11T16:51:45.506Z,4.83
2019-02-11T16:56:30.054Z,7.27
2019-02-11T17:01:14.806Z,3.37
2019-02-11T17:05:59.528Z,5.70
2019-02-11T17:10:44.206Z,4.40
2019-02-11T17:15:29.074Z,6.63
2019-02-11T17:20:14.357Z,4.90
2019-02-11T17:24:58.925Z,3.40
2019-02-11T17:29:43.347Z,4.03
2019-02-11T17:34:27.986Z,2.67
2019-02-11T17:39:12.710Z,5.43
2019-02-11T17:43:57.486Z,5.80
2019-02-11T17:48:42.051Z,3.77
2019-02-11T17:53:26.847Z,2.60
2019-02-11T17:58:11.476Z,6.80
2019-02-11T18:02:56.354Z,8.93
2019-02-11T18:07:41.086Z,4.40
2019-02-11T18:12:25.799Z,8.23
2019-02-11T18:17:10.326Z,8.90
2019-02-11T18:21:54.966Z,4.90
2019-02-11T18:26:39.610Z,10.83
2019-02-11T18:31:24.315Z,7.33
2019-02-11T18:36:08.932Z,8.40
2019-02-11T18:40:53.590Z,6.43
2019-02-11T18:45:38.223Z,11.63
2019-02-11T18:50:22.820Z,7.47
2019-02-11T18:55:08.063Z,9.40
2019-02-11T18:59:52.656Z,6.97
2019-02-11T19:04:37.379Z,7.90
2019-02-11T19:09:22.288Z,12.88
2019-02-11T19:14:07.050Z,8.33
2019-02-11T19:18:51.826Z,8.30
2019-02-11T19:23:36.522Z,10.33
2019-02-11T19:28:21.047Z,12.40
2019-02-11T19:33:06.537Z,8.70
2019-02-11T19:37:51.040Z,11.47
2019-02-11T19:42:35.634Z,10.37
2019-02-11T19:47:27.256Z,9.80
2019-02-11T19:52:11.753Z,10.73
2019-02-11T19:56:56.334Z,7.93
2019-02-11T20:01:41.389Z,11.03
2019-02-11T20:06:33.934Z,9.43
2019-02-11T20:11:18.753Z,5.10
2019-02-11T20:16:12.651Z,7.37
2019-02-11T20:21:03.448Z,12.00
2019-02-11T20:25:54.547Z,7.23
2019-02-11T20:30:39.149Z,12.27
2019-02-11T20:35:27.891Z,12.27
2019-02-11T20:40:14.785Z,11.33
2019-02-11T20:44:59.582Z,8.70
2019-02-11T20:49:46.772Z,7.53
2019-02-11T20:54:31.756Z,12.00
2019-02-11T20:59:16.452Z,11.47
2019-02-11T21:04:01.121Z,9.17
2019-02-11T21:08:45.691Z,18.10
2019-02-11T21:13:30.329Z,16.20
2019-02-11T21:18:14.950Z,8.37
2019-02-11T21:22:59.614Z,13.87
2019-02-11T21:27:44.106Z,13.67
2019-02-11T21:32:28.640Z,11.07
2019-02-11T21:37:13.310Z,12.83
2019-02-11T21:41:57.902Z,12.77
2019-02-11T21:46:42.477Z,14.43
2019-02-11T21:51:26.988Z,9.60
2019-02-11T21:56:11.614Z,13.90
2019-02-11T22:01:02.182Z,10.60
2019-02-11T22:05:42.760Z,10.57
2019-02-11T22:10:27.374Z,14.47
2019-02-11T22:15:13.244Z,10.53
2019-02-11T22:19:57.888Z,9.80
2019-02-11T22:24:42.424Z,11.13
2019-02-11T22:29:27.089Z,12.87
2019-02-11T22:34:11.817Z,10.53
2019-02-11T22:38:56.298Z,9.83
2019-02-11T22:43:40.805Z,11.03
2019-02-11T22:48:25.294Z,20.57
2019-02-11T22:53:09.954Z,13.33
2019-02-11T22:57:54.574Z,7.97
2019-02-11T23:02:39.251Z,14.77
2019-02-11T23:07:23.824Z,6.67
2019-02-11T23:12:08.372Z,7.90
2019-02-11T23:16:53.194Z,8.30
2019-02-11T23:21:37.655Z,3.37
2019-02-11T23:26:22.178Z,5.90
2019-02-11T23:31:06.711Z,14.83
2019-02-11T23:35:51.397Z,8.83
2019-02-11T23:40:36.072Z,9.53
2019-02-11T23:45:20.762Z,8.13
2019-02-11T23:50:05.442Z,8.53
2019-02-11T23:54:50.061Z,10.30
2019-02-11T23:59:34.524Z,7.93
